createdAt,value
2019-02-10T00:02:02.327Z,100355.57
2019-02-10T00:05:46.954Z,100348.70
2019-02-10T00:09:31.567Z,100345.84
2019-02-10T00:13:35.981Z,100339.83
2019-02-10T00:17:20.962Z,100328.20
2019-02-10T00:21:05.603Z,100315.99
2019-02-10T00:24:50.209Z,100313.43
2019-02-10T00:28:34.809Z,100302.25
2019-02-10T00:32:19.495Z,100290.23
2019-02-10T00:35:57.356Z,100280.00
2019-02-10T00:39:41.972Z,100271.80
2019-02-10T00:43:27.009Z,100265.82
2019-02-10T00:47:11.661Z,100261.64
2019-02-10T00:50:56.575Z,100250.20
2019-02-10T00:54:41.282Z,100240.33
2019-02-10T00:58:25.903Z,100234.12
2019-02-10T01:02:10.574Z,100221.88
2019-02-10T01:05:55.276Z,100210.60
2019-02-10T01:09:39.903Z,100199.84
2019-02-10T01:13:24.639Z,100185.75
2019-02-10T01:17:09.321Z,100182.05
2019-02-10T01:20:53.967Z,100176.97
2019-02-10T01:24:38.591Z,100158.72
2019-02-10T01:28:23.574Z,100158.23
2019-02-10T01:32:08.249Z,100149.65
2019-02-10T01:35:45.545Z,100145.39
2019-02-10T01:39:30.171Z,100132.41
2019-02-10T01:43:14.822Z,100125.95
2019-02-10T01:46:59.448Z,100114.75
2019-02-10T01:50:44.052Z,100095.89
2019-02-10T01:54:29.025Z,100089.57
2019-02-10T01:58:13.646Z,100078.96
2019-02-10T02:01:58.285Z,100061.39
2019-02-10T02:09:38.877Z,100034.88
2019-02-10T02:13:23.464Z,100021.92
2019-02-10T02:17:08.411Z,100010.81
2019-02-10T02:20:53.046Z,99995.61
2019-02-10T02:24:37.677Z,99985.95
2019-02-10T02:28:22.286Z,99978.05
2019-02-10T02:32:06.895Z,99959.25
2019-02-10T02:35:43.701Z,99966.45
2019-02-10T02:39:28.350Z,99951.36
2019-02-10T02:43:13.012Z,99940.49
2019-02-10T02:46:57.957Z,99932.00
2019-02-10T02:50:42.585Z,99919.12
2019-02-10T02:54:27.186Z,99907.23
2019-02-10T03:02:22.253Z,99882.00
2019-02-10T03:06:06.900Z,99869.25
2019-02-10T03:09:51.508Z,99865.14
2019-02-10T03:13:36.141Z,99838.95
2019-02-10T03:17:20.762Z,99837.01
2019-02-10T03:21:05.379Z,99818.37
2019-02-10T03:24:50.062Z,99797.66
2019-02-10T03:28:34.699Z,99785.86
2019-02-10T03:32:19.326Z,99774.27
2019-02-10T03:35:56.712Z,99751.34
2019-02-10T03:43:31.672Z,99712.80
2019-02-10T03:47:16.243Z,99696.33
2019-02-10T03:51:00.864Z,99666.36
2019-02-10T03:54:45.461Z,99648.11
2019-02-10T03:58:30.080Z,99641.93
2019-02-10T04:02:14.697Z,99618.51
2019-02-10T04:05:59.306Z,99618.53
2019-02-10T04:09:43.924Z,99601.45
2019-02-10T04:13:28.879Z,99587.56
2019-02-10T04:24:54.249Z,99561.91
2019-02-10T04:28:39.203Z,99552.37
2019-02-10T04:32:23.806Z,99547.77
2019-02-10T04:36:01.147Z,99521.86
2019-02-10T04:43:35.571Z,99499.31
2019-02-10T04:47:20.566Z,99477.56
2019-02-10T04:51:05.182Z,99469.28
2019-02-10T04:54:49.807Z,99443.76
2019-02-10T05:02:37.963Z,99407.25
2019-02-10T05:06:22.509Z,99386.98
2019-02-10T05:13:58.010Z,99362.17
2019-02-10T05:21:32.382Z,99334.36
2019-02-10T05:29:01.508Z,99310.41
2019-02-10T05:32:46.101Z,99300.42
2019-02-10T05:36:23.026Z,99284.25
2019-02-10T05:40:07.634Z,99294.34
2019-02-10T05:43:52.594Z,99263.63
2019-02-10T05:47:37.221Z,99264.52
2019-02-10T05:51:21.813Z,99232.80
2019-02-10T05:58:57.194Z,99222.59
2019-02-10T06:02:42.053Z,99215.08
2019-02-10T06:06:26.655Z,99207.25
2019-02-10T06:10:11.637Z,99198.64
2019-02-10T06:13:56.234Z,99184.85
2019-02-10T06:17:40.847Z,99172.86
2019-02-10T06:21:25.457Z,99167.82
2019-02-10T06:29:00.608Z,99145.64
2019-02-10T06:32:45.203Z,99125.41
2019-02-10T06:36:22.222Z,99122.61
2019-02-10T06:40:08.445Z,99109.41
2019-02-10T06:43:53.098Z,99096.73
2019-02-10T06:47:37.685Z,99074.86
2019-02-10T06:51:22.500Z,99037.79
2019-02-10T07:03:31.814Z,98996.47
2019-02-10T07:07:16.421Z,98989.50
2019-02-10T07:11:01.033Z,98989.30
2019-02-10T07:14:45.625Z,98968.88
2019-02-10T07:19:08.392Z,98962.42
2019-02-10T07:22:55.958Z,98975.11
2019-02-10T07:26:55.328Z,98969.60
2019-02-10T07:30:49.606Z,98947.13
2019-02-10T07:34:52.132Z,98942.79
2019-02-10T07:38:59.396Z,98944.30
2019-02-10T07:43:22.129Z,98939.18
2019-02-10T07:52:10.683Z,98921.94
2019-02-10T07:56:33.453Z,98931.39
2019-02-10T08:00:56.191Z,98931.73
2019-02-10T08:05:19.226Z,98907.71
2019-02-10T08:09:35.297Z,98921.33
2019-02-10T08:13:33.241Z,98907.64
2019-02-10T08:17:59.065Z,98958.77
2019-02-10T08:22:06.087Z,98919.19
2019-02-10T08:26:28.897Z,98907.26
2019-02-10T08:30:51.676Z,98901.20
2019-02-10T08:34:53.752Z,98881.09
2019-02-10T08:39:00.534Z,98881.31
2019-02-10T08:43:23.345Z,98869.71
2019-02-10T08:47:46.100Z,98857.05
2019-02-10T08:52:08.901Z,98855.39
2019-02-10T08:55:53.569Z,98849.50
2019-02-10T08:59:38.431Z,98838.45
2019-02-10T09:03:23.131Z,98828.00
2019-02-10T09:10:38.715Z,98821.11
2019-02-10T09:14:23.337Z,98810.49
2019-02-10T09:18:07.953Z,98799.63
2019-02-10T09:25:42.844Z,98792.38
2019-02-10T09:29:27.459Z,98804.91
2019-02-10T09:33:12.187Z,98808.73
2019-02-10T09:36:49.555Z,98810.56
2019-02-10T09:40:34.599Z,98802.16
2019-02-10T09:44:19.231Z,98800.16
2019-02-10T09:47:44.786Z,98798.97
2019-02-10T09:51:29.530Z,98786.91
2019-02-10T09:59:04.502Z,98785.97
2019-02-10T10:02:49.432Z,98771.17
2019-02-10T10:06:34.047Z,98778.89
2019-02-10T10:10:18.666Z,98783.24
2019-02-10T10:14:03.324Z,98775.86
2019-02-10T10:21:51.493Z,98743.34
2019-02-10T10:25:36.114Z,98747.67
2019-02-10T10:29:20.708Z,98755.30
2019-02-10T10:33:05.383Z,98755.80
2019-02-10T10:36:42.741Z,98766.09
2019-02-10T10:40:27.383Z,98749.85
2019-02-10T10:44:11.962Z,98758.77
2019-02-10T10:47:56.597Z,98751.92
2019-02-10T10:51:41.562Z,98773.75
2019-02-10T10:55:26.189Z,98758.28
2019-02-10T10:59:10.768Z,98759.98
2019-02-10T11:02:55.763Z,98755.39
2019-02-10T11:06:40.517Z,98752.23
2019-02-10T11:10:25.194Z,98754.02
2019-02-10T11:14:28.627Z,98761.78
2019-02-10T11:18:13.262Z,98749.07
2019-02-10T11:21:58.128Z,98766.86
2019-02-10T11:25:42.750Z,98747.75
2019-02-10T11:29:27.299Z,98737.98
2019-02-10T11:33:11.921Z,98740.65
2019-02-10T11:36:48.890Z,98731.79
2019-02-10T11:44:36.993Z,98736.08
2019-02-10T11:48:21.631Z,98738.05
2019-02-10T11:52:06.257Z,98746.13
2019-02-10T11:55:50.878Z,98746.16
2019-02-10T11:59:35.519Z,98753.63
2019-02-10T12:03:20.498Z,98761.79
2019-02-10T12:07:05.117Z,98760.84
2019-02-10T12:10:49.731Z,98767.00
2019-02-10T12:14:34.340Z,98763.41
2019-02-10T12:22:22.767Z,98774.91
2019-02-10T12:25:59.699Z,98772.17
2019-02-10T12:29:44.285Z,98771.73
2019-02-10T12:33:29.193Z,98786.44
2019-02-10T12:37:13.799Z,98781.31
2019-02-10T12:40:58.734Z,98781.83
2019-02-10T12:44:43.301Z,98779.15
2019-02-10T12:52:18.773Z,98793.94
2019-02-10T12:56:03.389Z,98782.50
2019-02-10T12:59:48.195Z,98783.62
2019-02-10T13:07:03.701Z,98792.60
2019-02-10T13:10:48.314Z,98782.22
2019-02-10T13:14:33.036Z,98780.04
2019-02-10T13:22:21.161Z,98787.27
2019-02-10T13:26:01.698Z,98780.47
2019-02-10T13:29:46.350Z,98781.59
2019-02-10T13:33:30.975Z,98784.86
2019-02-10T13:37:15.642Z,98789.97
2019-02-10T13:41:00.243Z,98790.59
2019-02-10T13:44:44.862Z,98788.33
2019-02-10T13:48:29.476Z,98789.55
2019-02-10T13:52:14.063Z,98788.09
2019-02-10T13:55:58.701Z,98791.28
2019-02-10T14:07:03.931Z,98789.59
2019-02-10T14:10:48.662Z,98783.56
2019-02-10T14:14:33.312Z,98790.58
2019-02-10T14:18:18.079Z,98787.60
2019-02-10T14:22:02.752Z,98786.97
2019-02-10T14:25:40.001Z,98785.27
2019-02-10T14:29:24.730Z,98792.52
2019-02-10T14:33:09.404Z,98797.48
2019-02-10T14:36:54.038Z,98796.28
2019-02-10T14:40:38.659Z,98795.75
2019-02-10T14:44:22.683Z,98812.69
2019-02-10T14:48:07.557Z,98817.10
2019-02-10T14:51:52.186Z,98797.50
2019-02-10T14:55:36.800Z,98804.77
2019-02-10T14:59:40.888Z,98809.14
2019-02-10T15:03:25.521Z,98811.13
2019-02-10T15:07:09.531Z,98818.89
2019-02-10T15:10:47.022Z,98816.06
2019-02-10T15:14:31.639Z,98822.88
2019-02-10T15:22:52.156Z,98825.91
2019-02-10T15:26:36.765Z,98834.27
2019-02-10T15:30:21.873Z,98833.79
2019-02-10T15:34:06.463Z,98847.69
2019-02-10T15:37:51.151Z,98843.52
2019-02-10T15:41:35.749Z,98838.83
2019-02-10T15:45:20.404Z,98830.91
2019-02-10T15:49:05.141Z,98839.00
2019-02-10T15:53:08.608Z,98845.78
2019-02-10T15:56:53.177Z,98856.73
2019-02-10T16:00:37.861Z,98874.56
2019-02-10T16:04:22.518Z,98862.22
2019-02-10T16:08:07.410Z,98885.08
2019-02-10T16:11:44.370Z,98881.51
2019-02-10T16:15:29.009Z,98893.70
2019-02-10T16:19:13.646Z,98894.16
2019-02-10T16:22:58.529Z,98905.81
2019-02-10T16:26:43.507Z,98909.68
2019-02-10T16:34:18.700Z,98928.38
2019-02-10T16:38:03.747Z,98934.28
2019-02-10T16:41:48.386Z,98935.25
2019-02-10T16:45:32.965Z,98951.38
2019-02-10T16:49:17.636Z,98962.38
2019-02-10T16:53:02.535Z,98963.98
2019-02-10T16:56:47.141Z,98969.02
2019-02-10T17:00:31.837Z,98984.02
2019-02-10T17:04:16.499Z,98980.13
2019-02-10T17:08:01.169Z,98987.36
2019-02-10T17:15:34.968Z,99005.52
2019-02-10T17:23:04.053Z,99011.86
2019-02-10T17:26:48.814Z,99018.06
2019-02-10T17:30:33.452Z,99034.06
2019-02-10T17:34:18.081Z,99033.84
2019-02-10T17:38:02.797Z,99042.73
2019-02-10T17:41:48.722Z,99042.75
2019-02-10T17:45:33.373Z,99058.02
2019-02-10T17:49:18.048Z,99063.03
2019-02-10T17:53:03.133Z,99071.31
2019-02-10T17:56:47.750Z,99091.27
2019-02-10T18:04:41.405Z,99100.88
2019-02-10T18:08:45.613Z,99110.39
2019-02-10T18:12:23.436Z,99114.06
2019-02-10T18:16:26.986Z,99129.77
2019-02-10T18:20:11.542Z,99142.68
2019-02-10T18:24:15.034Z,99142.77
2019-02-10T18:28:18.546Z,99153.36
2019-02-10T18:32:42.603Z,99174.69
2019-02-10T18:40:30.626Z,99192.37
2019-02-10T18:44:34.151Z,99204.27
2019-02-10T18:48:37.857Z,99214.02
2019-02-10T18:52:28.175Z,99225.34
2019-02-10T18:56:31.653Z,99235.97
2019-02-10T19:00:35.434Z,99243.39
2019-02-10T19:04:38.869Z,99253.17
2019-02-10T19:08:42.930Z,99266.11
2019-02-10T19:12:37.311Z,99272.06
2019-02-10T19:16:32.694Z,99291.52
2019-02-10T19:20:35.868Z,99311.26
2019-02-10T19:24:20.723Z,99319.66
2019-02-10T19:28:24.349Z,99330.89
2019-02-10T19:32:08.824Z,99339.16
2019-02-10T19:36:12.646Z,99354.50
2019-02-10T19:39:57.159Z,99359.51
2019-02-10T19:44:00.696Z,99376.27
2019-02-10T19:48:04.174Z,99393.33
2019-02-10T19:52:07.645Z,99400.42
2019-02-10T19:56:11.152Z,99415.78
2019-02-10T20:00:14.709Z,99419.78
2019-02-10T20:04:18.258Z,99444.41
2019-02-10T20:08:14.431Z,99453.47
2019-02-10T20:12:13.517Z,99454.89
2019-02-10T20:20:20.442Z,99482.78
2019-02-10T20:24:14.474Z,99507.95
2019-02-10T20:28:18.000Z,99512.70
2019-02-10T20:32:21.529Z,99515.33
2019-02-10T20:36:12.735Z,99528.02
2019-02-10T20:40:16.272Z,99547.37
2019-02-10T20:44:17.736Z,99554.59
2019-02-10T20:48:05.228Z,99572.54
2019-02-10T20:52:05.451Z,99599.63
2019-02-10T20:56:09.146Z,99610.96
2019-02-10T21:00:12.731Z,99636.45
2019-02-10T21:04:16.239Z,99652.19
2019-02-10T21:08:20.024Z,99673.22
2019-02-10T21:12:23.663Z,99687.23
2019-02-10T21:16:27.212Z,99701.53
2019-02-10T21:20:24.653Z,99698.18
2019-02-10T21:24:28.626Z,99740.91
2019-02-10T21:28:32.123Z,99760.62
2019-02-10T21:32:35.691Z,99773.13
2019-02-10T21:36:39.335Z,99788.41
2019-02-10T21:40:42.896Z,99799.07
2019-02-10T21:44:33.045Z,99817.01
2019-02-10T21:48:36.715Z,99840.06
2019-02-10T21:52:14.873Z,99854.69
2019-02-10T21:55:59.682Z,99871.06
2019-02-10T21:59:45.297Z,99878.60
2019-02-10T22:03:30.290Z,99890.17
2019-02-10T22:07:15.137Z,99908.22
2019-02-10T22:10:59.882Z,99916.94
2019-02-10T22:14:44.745Z,99937.91
2019-02-10T22:18:29.796Z,99948.73
2019-02-10T22:22:14.613Z,99962.91
2019-02-10T22:26:00.179Z,99988.03
2019-02-10T22:29:44.938Z,99983.78
2019-02-10T22:33:29.816Z,99999.38
2019-02-10T22:37:33.959Z,100007.45
2019-02-10T22:41:18.808Z,100014.30
2019-02-10T22:45:03.559Z,100031.07
2019-02-10T22:48:48.263Z,100047.96
2019-02-10T22:52:25.311Z,100061.52
2019-02-10T22:56:09.995Z,100074.09
2019-02-10T22:59:54.697Z,100088.21
2019-02-10T23:03:39.419Z,100102.61
2019-02-10T23:07:24.258Z,100111.19
2019-02-10T23:11:09.443Z,100125.06
2019-02-10T23:14:54.132Z,100137.08
2019-02-10T23:18:38.884Z,100145.28
2019-02-10T23:22:23.577Z,100157.66
2019-02-10T23:26:08.830Z,100166.70
2019-02-10T23:29:53.509Z,100193.91
2019-02-10T23:33:38.164Z,100196.58
2019-02-10T23:37:22.924Z,100197.66
2019-02-10T23:41:08.086Z,100213.38
2019-02-10T23:44:52.879Z,100226.41
2019-02-10T23:48:37.528Z,100237.65
2019-02-10T23:52:14.433Z,100250.72
2019-02-10T23:55:59.124Z,100254.88
2019-02-10T23:59:43.844Z,100267.68
